createdAt,value
2019-04-25T00:00:04.628Z,98.40
2019-04-25T00:02:38.419Z,98.10
2019-04-25T00:05:11.323Z,98.00
2019-04-25T00:07:42.549Z,98.20
2019-04-25T00:10:14.481Z,98.30
2019-04-25T00:12:44.715Z,98.10
2019-04-25T00:15:15.611Z,98.20
2019-04-25T00:17:46.207Z,98.20
2019-04-25T00:20:16.644Z,98.80
2019-04-25T00:22:54.668Z,98.80
2019-04-25T00:25:35.057Z,98.70
2019-04-25T00:28:06.718Z,98.80
2019-04-25T00:30:36.791Z,98.80
2019-04-25T00:33:06.867Z,98.80
2019-04-25T00:35:37.003Z,98.40
2019-04-25T00:38:07.060Z,98.00
2019-04-25T00:40:37.234Z,97.80
2019-04-25T00:43:07.216Z,97.90
2019-04-25T00:45:37.215Z,97.80
2019-04-25T00:48:07.320Z,98.00
2019-04-25T00:50:37.358Z,98.20
2019-04-25T00:53:07.341Z,98.00
2019-04-25T00:55:37.428Z,98.50
2019-04-25T00:58:16.103Z,99.00
2019-04-25T01:00:58.739Z,98.80
2019-04-25T01:03:31.682Z,98.50
2019-04-25T01:06:03.479Z,98.60
2019-04-25T01:08:33.669Z,98.40
2019-04-25T01:11:03.759Z,98.40
2019-04-25T01:13:33.751Z,98.30
2019-04-25T01:16:04.125Z,98.20
2019-04-25T01:18:35.409Z,98.10
2019-04-25T01:21:06.042Z,97.90
2019-04-25T01:23:36.031Z,98.50
2019-04-25T01:26:06.525Z,98.40
2019-04-25T01:28:36.511Z,98.40
2019-04-25T01:31:08.184Z,98.20
2019-04-25T01:33:38.204Z,98.30
2019-04-25T01:36:27.159Z,98.70
2019-04-25T01:39:10.727Z,98.60
2019-04-25T01:42:09.559Z,98.80
2019-04-25T01:44:44.013Z,98.70
2019-04-25T01:47:14.412Z,98.50
2019-04-25T01:49:44.478Z,98.40
2019-04-25T01:52:14.572Z,98.50
2019-04-25T01:54:44.583Z,98.20
2019-04-25T01:57:15.483Z,98.30
2019-04-25T01:59:45.472Z,98.40
2019-04-25T02:02:20.028Z,98.50
2019-04-25T02:04:51.286Z,98.30
2019-04-25T02:07:21.541Z,98.50
2019-04-25T02:09:52.186Z,98.50
2019-04-25T02:12:52.205Z,98.50
2019-04-25T02:15:26.283Z,98.50
2019-04-25T02:17:57.192Z,98.20
2019-04-25T02:20:28.139Z,98.00
2019-04-25T02:22:58.179Z,97.80
2019-04-25T02:25:28.200Z,97.80
2019-04-25T02:28:01.099Z,97.70
2019-04-25T02:30:30.241Z,97.60
2019-04-25T02:33:06.137Z,97.20
2019-04-25T02:35:34.996Z,97.10
2019-04-25T02:38:08.783Z,97.20
2019-04-25T02:40:36.970Z,97.60
2019-04-25T02:43:08.292Z,97.60
2019-04-25T02:45:59.911Z,97.30
2019-04-25T02:48:48.127Z,97.40
2019-04-25T02:51:40.704Z,97.50
2019-04-25T02:54:10.728Z,97.80
2019-04-25T02:56:40.716Z,97.80
2019-04-25T02:59:10.831Z,97.60
2019-04-25T03:01:40.912Z,97.90
2019-04-25T03:04:11.526Z,97.60
2019-04-25T03:06:41.794Z,97.60
2019-04-25T03:09:12.255Z,98.00
2019-04-25T03:11:44.937Z,98.00
2019-04-25T03:14:14.702Z,97.60
2019-04-25T03:16:45.088Z,97.60
2019-04-25T03:19:34.253Z,97.80
2019-04-25T03:22:09.559Z,98.10
2019-04-25T03:24:38.183Z,98.20
2019-04-25T03:27:08.979Z,98.10
2019-04-25T03:29:39.199Z,98.40
2019-04-25T03:32:13.374Z,97.90
2019-04-25T03:34:41.008Z,97.50
2019-04-25T03:37:11.534Z,97.50
2019-04-25T03:39:41.619Z,97.70
2019-04-25T03:42:12.021Z,97.80
2019-04-25T03:44:43.703Z,97.90
2019-04-25T03:47:13.841Z,98.40
2019-04-25T03:49:43.942Z,98.80
2019-04-25T03:52:14.268Z,98.40
2019-04-25T03:54:44.426Z,98.20
2019-04-25T03:57:14.672Z,97.90
2019-04-25T03:59:45.816Z,97.90
2019-04-25T04:02:15.891Z,98.30
2019-04-25T04:04:45.910Z,97.90
2019-04-25T04:07:15.982Z,97.80
2019-04-25T04:09:47.055Z,98.10
2019-04-25T04:12:17.094Z,98.20
2019-04-25T04:14:47.108Z,98.20
2019-04-25T04:17:38.344Z,98.20
2019-04-25T04:20:40.895Z,98.00
2019-04-25T04:23:28.500Z,98.10
2019-04-25T04:25:58.630Z,97.80
2019-04-25T04:28:28.783Z,97.80
2019-04-25T04:30:58.799Z,97.80
2019-04-25T04:33:32.875Z,98.00
2019-04-25T04:36:03.907Z,98.00
2019-04-25T04:38:34.381Z,97.50
2019-04-25T04:41:04.542Z,97.00
2019-04-25T04:43:35.682Z,96.90
2019-04-25T04:46:05.773Z,97.70
2019-04-25T04:48:35.839Z,97.80
2019-04-25T04:51:05.859Z,97.60
2019-04-25T04:53:35.901Z,97.70
2019-04-25T04:56:07.064Z,97.30
2019-04-25T04:58:37.291Z,97.20
2019-04-25T05:01:07.440Z,96.80
2019-04-25T05:03:47.035Z,97.10
2019-04-25T05:06:45.025Z,97.20
2019-04-25T05:09:17.825Z,97.00
2019-04-25T05:11:47.983Z,96.60
2019-04-25T05:14:17.991Z,96.60
2019-04-25T05:16:49.528Z,96.20
2019-04-25T05:19:19.923Z,96.80
2019-04-25T05:21:50.073Z,96.60
2019-04-25T05:24:20.847Z,96.00
2019-04-25T05:26:51.022Z,96.30
2019-04-25T05:29:23.248Z,95.20
2019-04-25T05:31:54.271Z,91.00
2019-04-25T05:34:25.813Z,82.70
2019-04-25T05:36:56.042Z,79.50
2019-04-25T05:39:26.871Z,85.20
2019-04-25T05:42:04.313Z,89.40
2019-04-25T05:44:34.815Z,90.80
2019-04-25T05:47:04.858Z,90.00
2019-04-25T05:49:34.867Z,90.30
2019-04-25T05:52:04.961Z,90.70
2019-04-25T05:54:35.308Z,88.00
2019-04-25T05:57:05.601Z,77.60
2019-04-25T05:59:36.738Z,72.70
2019-04-25T06:02:06.999Z,73.90
2019-04-25T06:04:37.031Z,77.10
2019-04-25T06:07:07.172Z,71.80
2019-04-25T06:09:56.186Z,59.60
2019-04-25T06:12:35.156Z,59.10
2019-04-25T06:15:05.939Z,57.20
2019-04-25T06:17:55.518Z,60.80
2019-04-25T06:20:28.547Z,58.40
2019-04-25T06:23:04.808Z,58.10
2019-04-25T06:25:39.653Z,57.40
2019-04-25T06:28:09.323Z,56.10
2019-04-25T06:30:39.563Z,54.40
2019-04-25T06:33:09.884Z,54.00
2019-04-25T06:35:40.100Z,53.10
2019-04-25T06:38:11.311Z,56.70
2019-04-25T06:40:41.572Z,50.10
2019-04-25T06:43:13.349Z,52.50
2019-04-25T06:46:05.300Z,47.40
2019-04-25T06:48:54.339Z,50.10
2019-04-25T06:51:44.017Z,46.70
2019-04-25T06:54:15.039Z,48.10
2019-04-25T06:56:45.047Z,50.20
2019-04-25T06:59:15.303Z,49.80
2019-04-25T07:01:45.299Z,45.40
2019-04-25T07:04:15.311Z,45.60
2019-04-25T07:06:45.602Z,48.00
2019-04-25T07:09:15.881Z,45.00
2019-04-25T07:11:48.184Z,48.30
2019-04-25T07:14:17.671Z,49.20
2019-04-25T07:16:47.683Z,49.20
2019-04-25T07:19:17.746Z,46.70
2019-04-25T07:21:47.840Z,46.60
2019-04-25T07:24:17.935Z,49.60
2019-04-25T07:26:55.971Z,46.00
2019-04-25T07:29:51.148Z,47.30
2019-04-25T07:32:43.889Z,53.50
2019-04-25T07:35:14.042Z,54.60
2019-04-25T07:37:44.230Z,52.70
2019-04-25T07:40:15.107Z,57.20
2019-04-25T07:42:45.187Z,57.40
2019-04-25T07:45:15.315Z,57.30
2019-04-25T07:47:45.466Z,57.30
2019-04-25T07:50:15.535Z,55.10
2019-04-25T07:52:45.560Z,50.70
2019-04-25T07:55:15.644Z,49.20
2019-04-25T07:57:45.748Z,52.30
2019-04-25T08:00:15.823Z,55.50
2019-04-25T08:02:46.197Z,51.60
2019-04-25T08:05:19.036Z,53.00
2019-04-25T08:07:49.026Z,55.20
2019-04-25T08:10:19.204Z,53.90
2019-04-25T08:12:49.347Z,52.40
2019-04-25T08:15:38.401Z,55.20
2019-04-25T08:18:09.192Z,52.20
2019-04-25T08:20:40.079Z,52.40
2019-04-25T08:23:10.263Z,50.40
2019-04-25T08:25:40.688Z,48.50
2019-04-25T08:28:10.747Z,50.20
2019-04-25T08:30:41.727Z,49.60
2019-04-25T08:33:13.766Z,46.00
2019-04-25T08:36:02.998Z,47.80
2019-04-25T08:38:15.471Z,50.70
2019-04-25T08:40:45.660Z,51.90
2019-04-25T08:43:17.408Z,51.90
2019-04-25T08:45:48.977Z,50.10
2019-04-25T08:48:19.036Z,54.40
2019-04-25T08:50:58.407Z,55.90
2019-04-25T08:53:35.155Z,56.70
2019-04-25T08:56:11.475Z,56.40
2019-04-25T08:59:03.282Z,53.90
2019-04-25T09:01:32.270Z,56.90
2019-04-25T09:04:11.308Z,54.70
2019-04-25T09:06:42.292Z,54.90
2019-04-25T09:09:13.683Z,56.30
2019-04-25T09:11:45.949Z,56.50
2019-04-25T09:14:15.846Z,54.40
2019-04-25T09:16:46.659Z,54.20
2019-04-25T09:19:17.184Z,53.00
2019-04-25T09:21:49.486Z,50.70
2019-04-25T09:24:18.878Z,49.00
2019-04-25T09:26:48.915Z,47.60
2019-04-25T09:29:19.884Z,50.70
2019-04-25T09:31:50.212Z,52.40
2019-04-25T09:34:20.475Z,50.40
2019-04-25T09:36:50.559Z,47.30
2019-04-25T09:39:33.817Z,46.00
2019-04-25T09:42:05.233Z,49.70
2019-04-25T09:44:53.735Z,53.10
2019-04-25T09:47:23.867Z,50.50
2019-04-25T09:49:54.461Z,49.40
2019-04-25T09:52:25.094Z,48.90
2019-04-25T09:55:03.398Z,45.80
2019-04-25T09:57:55.824Z,42.00
2019-04-25T10:00:38.080Z,41.00
2019-04-25T10:03:08.304Z,40.90
2019-04-25T10:05:38.496Z,38.60
2019-04-25T10:08:08.784Z,41.80
2019-04-25T10:10:39.059Z,43.00
2019-04-25T10:13:09.338Z,42.70
2019-04-25T10:16:09.502Z,43.80
2019-04-25T10:18:39.568Z,44.80
2019-04-25T10:21:11.168Z,45.50
2019-04-25T10:23:43.647Z,45.50
2019-04-25T10:26:14.090Z,45.10
2019-04-25T10:28:45.210Z,44.10
2019-04-25T10:31:15.521Z,44.90
2019-04-25T10:33:46.999Z,46.20
2019-04-25T10:36:17.109Z,45.50
2019-04-25T10:39:01.968Z,44.40
2019-04-25T10:41:18.913Z,45.20
2019-04-25T10:43:48.940Z,43.70
2019-04-25T10:46:19.392Z,43.90
2019-04-25T10:48:49.427Z,43.70
2019-04-25T10:51:19.650Z,44.70
2019-04-25T10:53:49.727Z,44.80
2019-04-25T10:56:19.866Z,44.00
2019-04-25T10:58:54.831Z,45.00
2019-04-25T11:01:25.793Z,45.70
2019-04-25T11:04:09.871Z,45.90
2019-04-25T11:06:40.861Z,46.60
2019-04-25T11:09:19.109Z,45.90
2019-04-25T11:11:49.184Z,46.60
2019-04-25T11:14:20.351Z,47.30
2019-04-25T11:16:50.477Z,47.70
2019-04-25T11:19:20.584Z,47.40
2019-04-25T11:21:51.730Z,48.30
2019-04-25T11:24:23.509Z,48.50
2019-04-25T11:26:55.232Z,49.20
2019-04-25T11:29:25.466Z,49.50
2019-04-25T11:31:55.541Z,49.20
2019-04-25T11:34:25.548Z,49.00
2019-04-25T11:36:55.727Z,49.90
2019-04-25T11:39:54.923Z,47.80
2019-04-25T11:42:25.588Z,46.80
2019-04-25T11:44:55.639Z,47.50
2019-04-25T11:47:25.768Z,45.80
2019-04-25T11:49:55.891Z,45.80
2019-04-25T11:52:28.162Z,44.90
2019-04-25T11:54:57.624Z,44.80
2019-04-25T11:57:27.700Z,44.30
2019-04-25T11:59:57.703Z,42.70
2019-04-25T12:02:27.759Z,42.50
2019-04-25T12:04:58.000Z,43.10
2019-04-25T12:07:28.209Z,42.90
2019-04-25T12:09:58.201Z,43.80
2019-04-25T12:12:28.382Z,41.80
2019-04-25T12:14:58.431Z,40.90
2019-04-25T12:17:28.523Z,41.30
2019-04-25T12:19:58.587Z,41.50
2019-04-25T12:22:28.723Z,41.30
2019-04-25T12:24:58.732Z,41.40
2019-04-25T12:27:28.979Z,41.30
2019-04-25T12:29:59.560Z,40.50
2019-04-25T12:32:29.708Z,41.80
2019-04-25T12:34:59.991Z,41.20
2019-04-25T12:37:30.118Z,40.00
2019-04-25T12:40:00.111Z,37.90
2019-04-25T12:42:30.147Z,37.90
2019-04-25T12:45:10.728Z,37.50
2019-04-25T12:47:43.682Z,37.70
2019-04-25T12:50:14.404Z,39.20
2019-04-25T12:52:44.758Z,38.70
2019-04-25T12:55:15.396Z,39.10
2019-04-25T12:57:45.963Z,38.70
2019-04-25T13:00:20.243Z,39.60
2019-04-25T13:02:50.407Z,38.50
2019-04-25T13:05:20.901Z,38.80
2019-04-25T13:07:51.475Z,37.60
2019-04-25T13:10:23.610Z,37.60
2019-04-25T13:12:55.415Z,37.10
2019-04-25T13:15:26.955Z,37.50
2019-04-25T13:17:57.551Z,37.10
2019-04-25T13:20:27.535Z,37.10
2019-04-25T13:22:58.501Z,37.00
2019-04-25T13:25:28.664Z,34.70
2019-04-25T13:28:20.842Z,35.40
2019-04-25T13:31:14.767Z,35.40
2019-04-25T13:33:57.394Z,34.70
2019-04-25T13:36:27.414Z,34.50
2019-04-25T13:38:57.433Z,34.40
2019-04-25T13:41:28.482Z,34.00
2019-04-25T13:43:58.941Z,35.00
2019-04-25T13:46:28.958Z,34.30
2019-04-25T13:48:58.971Z,34.20
2019-04-25T13:51:29.055Z,35.00
2019-04-25T13:53:59.496Z,34.20
2019-04-25T13:56:29.481Z,33.60
2019-04-25T13:58:59.493Z,34.10
2019-04-25T14:01:29.775Z,34.20
2019-04-25T14:04:00.083Z,34.80
2019-04-25T14:06:30.417Z,35.70
2019-04-25T14:09:00.462Z,35.90
2019-04-25T14:11:32.721Z,35.80
2019-04-25T14:14:03.952Z,36.00
2019-04-25T14:16:52.059Z,36.50
2019-04-25T14:19:44.258Z,36.60
2019-04-25T14:22:14.559Z,35.70
2019-04-25T14:24:44.572Z,35.70
2019-04-25T14:27:16.380Z,35.90
2019-04-25T14:29:47.390Z,35.40
2019-04-25T14:32:17.719Z,35.70
2019-04-25T14:34:47.738Z,35.80
2019-04-25T14:37:17.769Z,35.30
2019-04-25T14:39:47.779Z,35.30
2019-04-25T14:42:17.849Z,35.80
2019-04-25T14:44:47.923Z,36.30
2019-04-25T14:47:17.951Z,36.40
2019-04-25T14:49:47.975Z,35.80
2019-04-25T14:52:18.181Z,35.50
2019-04-25T14:55:07.178Z,36.00
2019-04-25T14:57:37.159Z,35.60
2019-04-25T15:00:11.111Z,35.60
2019-04-25T15:02:42.496Z,36.30
2019-04-25T15:05:12.507Z,35.90
2019-04-25T15:07:42.997Z,35.90
2019-04-25T15:10:13.120Z,36.20
2019-04-25T15:12:43.179Z,37.00
2019-04-25T15:15:14.072Z,36.00
2019-04-25T15:17:46.779Z,36.70
2019-04-25T15:20:15.896Z,36.30
2019-04-25T15:22:45.908Z,37.10
2019-04-25T15:25:16.154Z,36.80
2019-04-25T15:27:46.151Z,35.90
2019-04-25T15:30:22.787Z,35.80
2019-04-25T15:32:52.962Z,36.20
2019-04-25T15:35:25.807Z,35.20
2019-04-25T15:38:04.544Z,34.90
2019-04-25T15:40:46.027Z,35.40
2019-04-25T15:43:35.019Z,33.90
2019-04-25T15:46:11.051Z,34.60
2019-04-25T15:48:41.635Z,33.00
2019-04-25T15:51:11.650Z,34.20
2019-04-25T15:53:42.295Z,33.50
2019-04-25T15:56:12.541Z,33.90
2019-04-25T15:58:42.687Z,33.10
2019-04-25T16:01:14.345Z,33.10
2019-04-25T16:03:44.535Z,33.80
2019-04-25T16:06:14.648Z,34.20
2019-04-25T16:08:44.932Z,34.60
2019-04-25T16:11:15.213Z,35.90
2019-04-25T16:13:46.379Z,36.60
2019-04-25T16:16:16.638Z,37.40
2019-04-25T16:18:46.912Z,38.60
2019-04-25T16:21:17.728Z,37.80
2019-04-25T16:23:47.813Z,38.00
2019-04-25T16:26:18.007Z,39.70
2019-04-25T16:28:48.089Z,39.80
2019-04-25T16:31:20.867Z,40.30
2019-04-25T16:33:50.965Z,41.40
2019-04-25T16:36:21.481Z,42.80
2019-04-25T16:38:52.571Z,43.10
2019-04-25T16:41:24.233Z,43.80
2019-04-25T16:43:58.486Z,44.50
2019-04-25T16:46:30.074Z,44.80
2019-04-25T16:49:00.197Z,45.20
2019-04-25T16:51:30.804Z,45.60
2019-04-25T16:54:00.963Z,45.70
2019-04-25T16:56:31.122Z,46.00
2019-04-25T16:59:01.122Z,45.90
2019-04-25T17:01:32.267Z,46.00
2019-04-25T17:04:02.394Z,46.00
2019-04-25T17:06:33.785Z,46.50
2019-04-25T17:09:05.111Z,46.80
2019-04-25T17:11:36.770Z,47.20
2019-04-25T17:14:26.305Z,48.00
2019-04-25T17:17:06.302Z,48.90
2019-04-25T17:19:55.239Z,49.70
2019-04-25T17:22:25.368Z,50.40
2019-04-25T17:24:55.350Z,50.70
2019-04-25T17:27:25.363Z,50.80
2019-04-25T17:29:55.527Z,50.90
2019-04-25T17:32:50.289Z,51.50
2019-04-25T17:35:29.571Z,51.70
2019-04-25T17:38:03.748Z,51.40
2019-04-25T17:40:35.556Z,52.00
2019-04-25T17:43:11.213Z,52.30
2019-04-25T17:45:37.475Z,53.10
2019-04-25T17:48:07.495Z,53.60
2019-04-25T17:50:37.546Z,54.10
2019-04-25T17:53:07.665Z,54.20
2019-04-25T17:55:37.667Z,54.50
2019-04-25T17:58:07.731Z,55.00
2019-04-25T18:00:39.908Z,55.50
2019-04-25T18:03:12.199Z,55.90
2019-04-25T18:05:42.195Z,56.40
2019-04-25T18:08:12.307Z,56.00
2019-04-25T18:10:42.300Z,56.00
2019-04-25T18:13:12.319Z,55.60
2019-04-25T18:15:53.180Z,55.40
2019-04-25T18:18:40.221Z,55.30
2019-04-25T18:21:10.312Z,54.60
2019-04-25T18:23:54.027Z,54.50
2019-04-25T18:26:43.466Z,55.10
2019-04-25T18:29:14.507Z,55.50
2019-04-25T18:31:44.523Z,56.60
2019-04-25T18:34:29.630Z,56.50
2019-04-25T18:37:18.589Z,57.00
2019-04-25T18:40:07.519Z,57.30
2019-04-25T18:42:59.531Z,57.80
2019-04-25T18:45:31.770Z,58.00
2019-04-25T18:48:01.828Z,58.30
2019-04-25T18:50:33.283Z,58.60
2019-04-25T18:53:19.516Z,58.70
2019-04-25T18:55:56.368Z,59.40
2019-04-25T18:58:41.902Z,59.40
2019-04-25T19:01:22.970Z,59.40
2019-04-25T19:03:59.655Z,59.20
2019-04-25T19:06:29.728Z,59.30
2019-04-25T19:08:59.754Z,59.30
2019-04-25T19:11:29.915Z,59.40
2019-04-25T19:13:59.936Z,60.20
2019-04-25T19:16:29.919Z,60.70
2019-04-25T19:19:00.025Z,60.80
2019-04-25T19:21:30.031Z,61.10
2019-04-25T19:24:00.086Z,61.00
2019-04-25T19:26:30.263Z,61.30
2019-04-25T19:29:00.278Z,61.30
2019-04-25T19:31:30.407Z,61.50
2019-04-25T19:34:00.502Z,61.80
2019-04-25T19:36:30.554Z,62.40
2019-04-25T19:39:00.648Z,61.70
2019-04-25T19:41:54.276Z,62.20
2019-04-25T19:44:27.146Z,61.90
2019-04-25T19:46:57.536Z,61.80
2019-04-25T19:49:28.035Z,61.30
2019-04-25T19:51:58.179Z,61.10
2019-04-25T19:54:28.190Z,61.00
2019-04-25T19:56:58.356Z,60.90
2019-04-25T19:59:28.399Z,61.00
2019-04-25T20:02:02.067Z,60.90
2019-04-25T20:04:54.906Z,61.10
2019-04-25T20:07:29.935Z,61.50
2019-04-25T20:10:18.111Z,61.70
2019-04-25T20:12:51.751Z,61.90
2019-04-25T20:15:21.712Z,62.10
2019-04-25T20:17:51.973Z,62.30
2019-04-25T20:20:22.271Z,62.60
2019-04-25T20:22:52.469Z,62.40
2019-04-25T20:25:22.637Z,62.30
2019-04-25T20:27:52.850Z,62.60
2019-04-25T20:30:23.697Z,62.80
2019-04-25T20:32:54.134Z,62.80
2019-04-25T20:35:24.153Z,63.30
2019-04-25T20:37:55.447Z,64.00
2019-04-25T20:40:25.821Z,63.60
2019-04-25T20:42:56.441Z,64.20
2019-04-25T20:45:26.723Z,64.40
2019-04-25T20:47:56.947Z,64.60
2019-04-25T20:50:27.171Z,65.00
2019-04-25T20:52:57.498Z,65.30
2019-04-25T20:55:27.543Z,65.30
2019-04-25T20:57:57.863Z,65.60
2019-04-25T21:00:44.971Z,65.80
2019-04-25T21:03:15.772Z,66.00
2019-04-25T21:05:48.555Z,66.60
2019-04-25T21:08:20.005Z,66.20
2019-04-25T21:10:52.470Z,66.30
2019-04-25T21:13:37.973Z,66.60
2019-04-25T21:16:27.398Z,66.70
2019-04-25T21:19:04.848Z,66.70
2019-04-25T21:21:34.937Z,66.50
2019-04-25T21:24:05.017Z,66.70
2019-04-25T21:26:36.113Z,67.10
2019-04-25T21:29:06.151Z,67.20
2019-04-25T21:31:36.265Z,67.50
2019-04-25T21:34:06.401Z,67.70
2019-04-25T21:36:36.905Z,67.60
2019-04-25T21:39:09.371Z,67.40
2019-04-25T21:41:51.429Z,67.50
2019-04-25T21:44:23.104Z,67.60
2019-04-25T21:46:53.664Z,67.30
2019-04-25T21:49:25.323Z,67.80
2019-04-25T21:51:57.039Z,67.90
2019-04-25T21:54:27.165Z,69.00
2019-04-25T21:56:57.806Z,68.00
2019-04-25T21:59:28.097Z,67.50
2019-04-25T22:01:58.400Z,67.30
2019-04-25T22:04:38.729Z,67.20
2019-04-25T22:07:00.839Z,67.90
2019-04-25T22:09:31.410Z,68.00
2019-04-25T22:12:01.783Z,68.00
2019-04-25T22:14:32.990Z,68.20
2019-04-25T22:17:03.894Z,68.20
2019-04-25T22:19:34.238Z,68.50
2019-04-25T22:22:04.730Z,69.00
2019-04-25T22:24:34.801Z,69.40
2019-04-25T22:27:07.458Z,70.20
2019-04-25T22:29:42.018Z,71.10
2019-04-25T22:32:49.210Z,71.90
2019-04-25T22:35:39.823Z,72.10
2019-04-25T22:38:10.162Z,72.90
2019-04-25T22:40:40.254Z,73.40
2019-04-25T22:43:11.917Z,74.00
2019-04-25T22:45:42.479Z,74.30
2019-04-25T22:48:12.558Z,74.60
2019-04-25T22:50:42.942Z,75.00
2019-04-25T22:53:22.612Z,75.30
2019-04-25T22:55:44.839Z,75.70
2019-04-25T22:58:14.899Z,76.20
2019-04-25T23:00:44.987Z,76.60
2019-04-25T23:03:27.343Z,76.90
2019-04-25T23:05:58.036Z,76.90
2019-04-25T23:08:28.394Z,77.40
2019-04-25T23:10:58.471Z,77.90
2019-04-25T23:13:28.540Z,78.00
2019-04-25T23:15:58.815Z,78.00
2019-04-25T23:18:29.275Z,78.10
2019-04-25T23:20:59.363Z,79.00
2019-04-25T23:23:32.272Z,78.60
2019-04-25T23:26:15.541Z,78.90
2019-04-25T23:28:46.095Z,79.10
2019-04-25T23:31:21.126Z,79.50
2019-04-25T23:33:51.165Z,80.10
2019-04-25T23:36:21.522Z,80.00
2019-04-25T23:38:51.571Z,80.10
2019-04-25T23:41:21.927Z,80.40
2019-04-25T23:43:51.962Z,80.50
2019-04-25T23:46:22.423Z,80.80
2019-04-25T23:48:52.462Z,80.80
2019-04-25T23:51:22.550Z,80.80
2019-04-25T23:53:52.986Z,80.70
2019-04-25T23:56:22.975Z,80.80
2019-04-25T23:58:53.313Z,80.40
